sensor_id;sensor_type;location;lat;lon;timestamp;P1;durP1;ratioP1;P2;durP2;ratioP2
55423;SDS011;41294;42.666;23.350;2023-05-14T00:00:33;3.67;;;3.37;;
55423;SDS011;41294;42.666;23.350;2023-05-14T00:02:58;5.37;;;3.37;;
55423;SDS011;41294;42.666;23.350;2023-05-14T00:05:23;5.23;;;3.13;;
55423;SDS011;41294;42.666;23.350;2023-05-14T00:07:49;3.47;;;2.97;;
55423;SDS011;41294;42.666;23.350;2023-05-14T00:10:14;3.20;;;2.90;;
55423;SDS011;41294;42.666;23.350;2023-05-14T00:12:41;4.43;;;3.30;;
55423;SDS011;41294;42.666;23.350;2023-05-14T00:15:07;3.80;;;2.97;;
55423;SDS011;41294;42.666;23.350;2023-05-14T00:17:32;3.37;;;3.07;;
55423;SDS011;41294;42.666;23.350;2023-05-14T00:19:58;4.50;;;3.10;;
55423;SDS011;41294;42.666;23.350;2023-05-14T00:22:23;3.20;;;2.90;;
55423;SDS011;41294;42.666;23.350;2023-05-14T00:24:49;4.23;;;3.30;;
55423;SDS011;41294;42.666;23.350;2023-05-14T00:27:14;4.20;;;2.97;;
55423;SDS011;41294;42.666;23.350;2023-05-14T00:29:39;3.97;;;3.53;;
55423;SDS011;41294;42.666;23.350;2023-05-14T00:32:05;3.70;;;2.90;;
55423;SDS011;41294;42.666;23.350;2023-05-14T00:34:30;5.17;;;3.37;;
55423;SDS011;41294;42.666;23.350;2023-05-14T00:36:56;4.13;;;3.30;;
55423;SDS011;41294;42.666;23.350;2023-05-14T00:39:21;3.33;;;3.00;;
55423;SDS011;41294;42.666;23.350;2023-05-14T00:41:47;3.50;;;3.20;;
55423;SDS011;41294;42.666;23.350;2023-05-14T00:44:12;3.23;;;3.00;;
55423;SDS011;41294;42.666;23.350;2023-05-14T00:46:37;6.20;;;3.20;;
55423;SDS011;41294;42.666;23.350;2023-05-14T00:49:03;3.00;;;2.80;;
55423;SDS011;41294;42.666;23.350;2023-05-14T00:51:28;4.43;;;3.13;;
55423;SDS011;41294;42.666;23.350;2023-05-14T00:53:54;6.43;;;3.20;;
55423;SDS011;41294;42.666;23.350;2023-05-14T00:56:20;4.20;;;3.20;;
55423;SDS011;41294;42.666;23.350;2023-05-14T00:58:46;3.80;;;2.73;;
55423;SDS011;41294;42.666;23.350;2023-05-14T01:01:12;3.60;;;3.30;;
55423;SDS011;41294;42.666;23.350;2023-05-14T01:03:39;3.63;;;2.90;;
55423;SDS011;41294;42.666;23.350;2023-05-14T01:11:18;3.33;;;3.00;;
55423;SDS011;41294;42.666;23.350;2023-05-14T01:16:42;4.63;;;3.20;;
55423;SDS011;41294;42.666;23.350;2023-05-14T01:19:09;3.53;;;3.10;;
55423;SDS011;41294;42.666;23.350;2023-05-14T01:22:01;4.53;;;3.10;;
55423;SDS011;41294;42.666;23.350;2023-05-14T01:24:26;3.30;;;3.00;;
55423;SDS011;41294;42.666;23.350;2023-05-14T01:26:52;3.13;;;2.93;;
55423;SDS011;41294;42.666;23.350;2023-05-14T01:29:27;3.30;;;3.00;;
55423;SDS011;41294;42.666;23.350;2023-05-14T01:31:54;4.63;;;2.97;;
55423;SDS011;41294;42.666;23.350;2023-05-14T01:34:23;3.23;;;2.93;;
55423;SDS011;41294;42.666;23.350;2023-05-14T01:36:50;3.77;;;2.87;;
55423;SDS011;41294;42.666;23.350;2023-05-14T01:39:17;4.97;;;2.87;;
55423;SDS011;41294;42.666;23.350;2023-05-14T01:41:43;3.03;;;2.73;;
55423;SDS011;41294;42.666;23.350;2023-05-14T01:44:10;3.77;;;2.90;;
55423;SDS011;41294;42.666;23.350;2023-05-14T01:46:36;4.33;;;3.10;;
55423;SDS011;41294;42.666;23.350;2023-05-14T01:49:01;3.00;;;2.70;;
55423;SDS011;41294;42.666;23.350;2023-05-14T01:51:27;2.90;;;2.70;;
55423;SDS011;41294;42.666;23.350;2023-05-14T01:53:52;2.70;;;2.50;;
55423;SDS011;41294;42.666;23.350;2023-05-14T01:56:18;3.00;;;2.70;;
55423;SDS011;41294;42.666;23.350;2023-05-14T01:58:45;4.57;;;2.93;;
55423;SDS011;41294;42.666;23.350;2023-05-14T02:01:11;5.80;;;3.20;;
55423;SDS011;41294;42.666;23.350;2023-05-14T02:03:36;3.90;;;2.90;;
55423;SDS011;41294;42.666;23.350;2023-05-14T02:06:02;3.10;;;2.80;;
55423;SDS011;41294;42.666;23.350;2023-05-14T02:08:27;3.53;;;2.60;;
55423;SDS011;41294;42.666;23.350;2023-05-14T02:10:53;6.67;;;2.97;;
55423;SDS011;41294;42.666;23.350;2023-05-14T02:13:18;3.53;;;2.70;;
55423;SDS011;41294;42.666;23.350;2023-05-14T02:15:43;3.20;;;2.90;;
55423;SDS011;41294;42.666;23.350;2023-05-14T02:18:09;5.70;;;2.73;;
55423;SDS011;41294;42.666;23.350;2023-05-14T02:20:34;3.13;;;2.83;;
55423;SDS011;41294;42.666;23.350;2023-05-14T02:23:00;2.80;;;2.60;;
55423;SDS011;41294;42.666;23.350;2023-05-14T02:25:25;4.23;;;2.67;;
55423;SDS011;41294;42.666;23.350;2023-05-14T02:27:50;3.53;;;2.83;;
55423;SDS011;41294;42.666;23.350;2023-05-14T02:30:16;3.20;;;2.90;;
55423;SDS011;41294;42.666;23.350;2023-05-14T02:32:41;3.10;;;2.90;;
55423;SDS011;41294;42.666;23.350;2023-05-14T02:35:07;3.33;;;2.63;;
55423;SDS011;41294;42.666;23.350;2023-05-14T02:37:32;2.77;;;2.47;;
55423;SDS011;41294;42.666;23.350;2023-05-14T02:39:58;2.93;;;2.73;;
55423;SDS011;41294;42.666;23.350;2023-05-14T02:42:24;3.33;;;3.00;;
55423;SDS011;41294;42.666;23.350;2023-05-14T02:44:50;3.23;;;2.93;;
55423;SDS011;41294;42.666;23.350;2023-05-14T02:47:16;4.77;;;2.77;;
55423;SDS011;41294;42.666;23.350;2023-05-14T02:49:42;3.33;;;2.63;;
55423;SDS011;41294;42.666;23.350;2023-05-14T02:52:07;3.83;;;2.73;;
55423;SDS011;41294;42.666;23.350;2023-05-14T02:54:32;3.70;;;2.90;;
55423;SDS011;41294;42.666;23.350;2023-05-14T02:56:58;3.73;;;2.70;;
55423;SDS011;41294;42.666;23.350;2023-05-14T02:59:23;4.43;;;3.07;;
55423;SDS011;41294;42.666;23.350;2023-05-14T03:01:49;3.17;;;2.83;;
55423;SDS011;41294;42.666;23.350;2023-05-14T03:04:14;3.53;;;3.17;;
55423;SDS011;41294;42.666;23.350;2023-05-14T03:06:40;5.00;;;2.83;;
55423;SDS011;41294;42.666;23.350;2023-05-14T03:09:05;5.10;;;2.90;;
55423;SDS011;41294;42.666;23.350;2023-05-14T03:11:31;4.37;;;2.90;;
55423;SDS011;41294;42.666;23.350;2023-05-14T03:13:57;5.40;;;2.90;;
55423;SDS011;41294;42.666;23.350;2023-05-14T03:16:22;3.30;;;3.00;;
55423;SDS011;41294;42.666;23.350;2023-05-14T03:18:47;3.00;;;2.67;;
55423;SDS011;41294;42.666;23.350;2023-05-14T03:21:13;4.70;;;2.67;;
55423;SDS011;41294;42.666;23.350;2023-05-14T03:23:38;3.87;;;3.03;;
55423;SDS011;41294;42.666;23.350;2023-05-14T03:26:04;2.73;;;2.53;;
55423;SDS011;41294;42.666;23.350;2023-05-14T03:28:29;4.20;;;3.30;;
55423;SDS011;41294;42.666;23.350;2023-05-14T03:30:54;3.70;;;2.80;;
55423;SDS011;41294;42.666;23.350;2023-05-14T03:33:20;4.07;;;2.60;;
55423;SDS011;41294;42.666;23.350;2023-05-14T03:35:46;3.73;;;2.63;;
55423;SDS011;41294;42.666;23.350;2023-05-14T03:38:12;4.40;;;3.30;;
55423;SDS011;41294;42.666;23.350;2023-05-14T03:40:37;2.90;;;2.70;;
55423;SDS011;41294;42.666;23.350;2023-05-14T03:43:03;3.67;;;2.90;;
55423;SDS011;41294;42.666;23.350;2023-05-14T03:45:28;3.20;;;2.90;;
55423;SDS011;41294;42.666;23.350;2023-05-14T03:47:54;2.97;;;2.77;;
55423;SDS011;41294;42.666;23.350;2023-05-14T03:50:20;4.30;;;3.00;;
55423;SDS011;41294;42.666;23.350;2023-05-14T03:52:45;3.57;;;2.90;;
55423;SDS011;41294;42.666;23.350;2023-05-14T03:55:11;3.53;;;2.90;;
55423;SDS011;41294;42.666;23.350;2023-05-14T03:57:36;3.37;;;2.60;;
55423;SDS011;41294;42.666;23.350;2023-05-14T04:00:02;4.63;;;3.07;;
55423;SDS011;41294;42.666;23.350;2023-05-14T04:02:28;3.00;;;2.70;;
55423;SDS011;41294;42.666;23.350;2023-05-14T04:04:54;3.70;;;2.60;;
55423;SDS011;41294;42.666;23.350;2023-05-14T04:07:19;3.37;;;3.10;;
55423;SDS011;41294;42.666;23.350;2023-05-14T04:09:45;3.77;;;2.87;;
55423;SDS011;41294;42.666;23.350;2023-05-14T04:12:10;4.53;;;2.97;;
55423;SDS011;41294;42.666;23.350;2023-05-14T04:14:35;3.77;;;2.60;;
55423;SDS011;41294;42.666;23.350;2023-05-14T04:17:01;5.23;;;2.80;;
55423;SDS011;41294;42.666;23.350;2023-05-14T04:19:26;3.77;;;3.03;;
55423;SDS011;41294;42.666;23.350;2023-05-14T04:21:51;3.57;;;3.27;;
55423;SDS011;41294;42.666;23.350;2023-05-14T04:24:17;3.77;;;3.03;;
55423;SDS011;41294;42.666;23.350;2023-05-14T04:26:42;4.20;;;3.00;;
55423;SDS011;41294;42.666;23.350;2023-05-14T04:29:08;4.43;;;3.10;;
55423;SDS011;41294;42.666;23.350;2023-05-14T04:31:33;3.37;;;2.70;;
55423;SDS011;41294;42.666;23.350;2023-05-14T04:33:58;3.73;;;3.43;;
55423;SDS011;41294;42.666;23.350;2023-05-14T04:36:24;3.20;;;2.80;;
55423;SDS011;41294;42.666;23.350;2023-05-14T04:38:49;5.77;;;3.20;;
55423;SDS011;41294;42.666;23.350;2023-05-14T04:41:15;3.57;;;3.03;;
55423;SDS011;41294;42.666;23.350;2023-05-14T04:43:41;2.97;;;2.77;;
55423;SDS011;41294;42.666;23.350;2023-05-14T04:46:06;3.33;;;2.90;;
55423;SDS011;41294;42.666;23.350;2023-05-14T04:48:31;3.47;;;2.90;;
55423;SDS011;41294;42.666;23.350;2023-05-14T04:50:57;4.07;;;3.03;;
55423;SDS011;41294;42.666;23.350;2023-05-14T04:53:22;5.10;;;3.07;;
55423;SDS011;41294;42.666;23.350;2023-05-14T04:55:48;5.40;;;3.00;;
55423;SDS011;41294;42.666;23.350;2023-05-14T04:58:13;3.23;;;2.80;;
55423;SDS011;41294;42.666;23.350;2023-05-14T05:00:39;4.33;;;3.03;;
55423;SDS011;41294;42.666;23.350;2023-05-14T05:03:04;8.80;;;2.80;;
55423;SDS011;41294;42.666;23.350;2023-05-14T05:05:30;4.70;;;3.30;;
55423;SDS011;41294;42.666;23.350;2023-05-14T05:07:55;3.87;;;3.40;;
55423;SDS011;41294;42.666;23.350;2023-05-14T05:10:21;3.20;;;2.90;;
55423;SDS011;41294;42.666;23.350;2023-05-14T05:12:46;4.07;;;3.40;;
55423;SDS011;41294;42.666;23.350;2023-05-14T05:15:12;4.43;;;3.60;;
55423;SDS011;41294;42.666;23.350;2023-05-14T05:17:37;4.30;;;3.50;;
55423;SDS011;41294;42.666;23.350;2023-05-14T05:20:02;3.73;;;3.07;;
55423;SDS011;41294;42.666;23.350;2023-05-14T05:22:29;4.87;;;3.93;;
55423;SDS011;41294;42.666;23.350;2023-05-14T05:24:55;4.37;;;3.60;;
55423;SDS011;41294;42.666;23.350;2023-05-14T05:27:20;4.50;;;4.07;;
55423;SDS011;41294;42.666;23.350;2023-05-14T05:29:46;5.90;;;3.70;;
55423;SDS011;41294;42.666;23.350;2023-05-14T05:32:12;5.27;;;3.97;;
55423;SDS011;41294;42.666;23.350;2023-05-14T05:34:37;4.67;;;4.17;;
55423;SDS011;41294;42.666;23.350;2023-05-14T05:37:03;6.50;;;4.27;;
55423;SDS011;41294;42.666;23.350;2023-05-14T05:39:29;4.60;;;3.97;;
55423;SDS011;41294;42.666;23.350;2023-05-14T05:41:58;5.63;;;4.33;;
55423;SDS011;41294;42.666;23.350;2023-05-14T05:44:25;5.13;;;4.10;;
55423;SDS011;41294;42.666;23.350;2023-05-14T05:46:50;5.23;;;4.10;;
55423;SDS011;41294;42.666;23.350;2023-05-14T05:49:16;5.60;;;4.00;;
55423;SDS011;41294;42.666;23.350;2023-05-14T05:51:41;5.00;;;4.50;;
55423;SDS011;41294;42.666;23.350;2023-05-14T05:54:06;5.80;;;5.10;;
55423;SDS011;41294;42.666;23.350;2023-05-14T05:56:32;6.30;;;4.30;;
55423;SDS011;41294;42.666;23.350;2023-05-14T05:58:57;8.23;;;5.33;;
55423;SDS011;41294;42.666;23.350;2023-05-14T06:01:22;6.57;;;5.13;;
55423;SDS011;41294;42.666;23.350;2023-05-14T06:03:48;9.53;;;5.23;;
55423;SDS011;41294;42.666;23.350;2023-05-14T06:06:13;6.03;;;4.87;;
55423;SDS011;41294;42.666;23.350;2023-05-14T06:08:39;6.30;;;4.70;;
55423;SDS011;41294;42.666;23.350;2023-05-14T06:11:04;6.13;;;5.30;;
55423;SDS011;41294;42.666;23.350;2023-05-14T06:13:30;5.73;;;5.07;;
55423;SDS011;41294;42.666;23.350;2023-05-14T06:15:55;8.83;;;5.33;;
55423;SDS011;41294;42.666;23.350;2023-05-14T06:18:21;5.40;;;4.90;;
55423;SDS011;41294;42.666;23.350;2023-05-14T06:20:46;5.53;;;5.00;;
55423;SDS011;41294;42.666;23.350;2023-05-14T06:23:11;5.97;;;5.00;;
55423;SDS011;41294;42.666;23.350;2023-05-14T06:25:37;6.23;;;5.13;;
55423;SDS011;41294;42.666;23.350;2023-05-14T06:28:02;6.23;;;5.37;;
55423;SDS011;41294;42.666;23.350;2023-05-14T06:30:28;6.20;;;5.60;;
55423;SDS011;41294;42.666;23.350;2023-05-14T06:32:53;5.70;;;5.20;;
55423;SDS011;41294;42.666;23.350;2023-05-14T06:35:18;16.50;;;5.87;;
55423;SDS011;41294;42.666;23.350;2023-05-14T06:37:44;6.50;;;5.80;;
55423;SDS011;41294;42.666;23.350;2023-05-14T06:40:10;6.20;;;5.60;;
55423;SDS011;41294;42.666;23.350;2023-05-14T06:42:36;5.60;;;5.10;;
55423;SDS011;41294;42.666;23.350;2023-05-14T06:45:01;6.63;;;5.93;;
55423;SDS011;41294;42.666;23.350;2023-05-14T06:47:27;8.23;;;5.47;;
55423;SDS011;41294;42.666;23.350;2023-05-14T06:49:53;8.17;;;5.73;;
55423;SDS011;41294;42.666;23.350;2023-05-14T06:52:19;6.80;;;5.53;;
55423;SDS011;41294;42.666;23.350;2023-05-14T06:54:45;7.93;;;6.27;;
55423;SDS011;41294;42.666;23.350;2023-05-14T06:57:10;6.77;;;6.07;;
55423;SDS011;41294;42.666;23.350;2023-05-14T06:59:35;6.90;;;6.30;;
55423;SDS011;41294;42.666;23.350;2023-05-14T07:02:01;7.13;;;6.40;;
55423;SDS011;41294;42.666;23.350;2023-05-14T07:04:27;9.20;;;7.83;;
55423;SDS011;41294;42.666;23.350;2023-05-14T07:06:52;9.73;;;7.57;;
55423;SDS011;41294;42.666;23.350;2023-05-14T07:09:18;7.03;;;6.33;;
55423;SDS011;41294;42.666;23.350;2023-05-14T07:11:43;8.07;;;7.23;;
55423;SDS011;41294;42.666;23.350;2023-05-14T07:14:09;8.47;;;6.73;;
55423;SDS011;41294;42.666;23.350;2023-05-14T07:16:34;9.60;;;7.03;;
55423;SDS011;41294;42.666;23.350;2023-05-14T07:19:00;10.47;;;8.23;;
55423;SDS011;41294;42.666;23.350;2023-05-14T07:21:25;9.17;;;8.27;;
55423;SDS011;41294;42.666;23.350;2023-05-14T07:23:50;12.00;;;9.90;;
55423;SDS011;41294;42.666;23.350;2023-05-14T07:26:16;10.90;;;9.80;;
55423;SDS011;41294;42.666;23.350;2023-05-14T07:28:41;15.17;;;10.87;;
55423;SDS011;41294;42.666;23.350;2023-05-14T07:31:06;11.77;;;9.90;;
55423;SDS011;41294;42.666;23.350;2023-05-14T07:33:33;10.67;;;9.40;;
55423;SDS011;41294;42.666;23.350;2023-05-14T07:35:59;9.60;;;8.37;;
55423;SDS011;41294;42.666;23.350;2023-05-14T07:38:25;11.43;;;9.13;;
55423;SDS011;41294;42.666;23.350;2023-05-14T07:40:50;15.27;;;11.47;;
55423;SDS011;41294;42.666;23.350;2023-05-14T07:43:15;14.17;;;10.43;;
55423;SDS011;41294;42.666;23.350;2023-05-14T07:45:41;14.80;;;12.03;;
55423;SDS011;41294;42.666;23.350;2023-05-14T07:48:06;16.40;;;9.90;;
55423;SDS011;41294;42.666;23.350;2023-05-14T07:50:32;12.40;;;8.77;;
55423;SDS011;41294;42.666;23.350;2023-05-14T07:52:57;12.07;;;8.30;;
55423;SDS011;41294;42.666;23.350;2023-05-14T07:55:23;8.90;;;8.00;;
55423;SDS011;41294;42.666;23.350;2023-05-14T07:57:48;9.77;;;7.67;;
55423;SDS011;41294;42.666;23.350;2023-05-14T08:00:14;10.40;;;7.97;;
55423;SDS011;41294;42.666;23.350;2023-05-14T08:02:40;9.80;;;7.77;;
55423;SDS011;41294;42.666;23.350;2023-05-14T08:05:06;7.40;;;6.70;;
55423;SDS011;41294;42.666;23.350;2023-05-14T08:07:33;10.37;;;7.63;;
55423;SDS011;41294;42.666;23.350;2023-05-14T08:09:58;9.83;;;8.83;;
55423;SDS011;41294;42.666;23.350;2023-05-14T08:12:23;10.70;;;8.57;;
55423;SDS011;41294;42.666;23.350;2023-05-14T08:14:49;11.87;;;8.60;;
55423;SDS011;41294;42.666;23.350;2023-05-14T08:17:14;9.77;;;8.77;;
55423;SDS011;41294;42.666;23.350;2023-05-14T08:19:40;10.57;;;8.83;;
55423;SDS011;41294;42.666;23.350;2023-05-14T08:22:05;12.00;;;9.30;;
55423;SDS011;41294;42.666;23.350;2023-05-14T08:24:31;12.13;;;9.50;;
55423;SDS011;41294;42.666;23.350;2023-05-14T08:26:56;12.30;;;9.20;;
55423;SDS011;41294;42.666;23.350;2023-05-14T08:29:22;10.30;;;9.30;;
55423;SDS011;41294;42.666;23.350;2023-05-14T08:31:48;12.77;;;8.70;;
55423;SDS011;41294;42.666;23.350;2023-05-14T08:34:15;10.30;;;9.30;;
55423;SDS011;41294;42.666;23.350;2023-05-14T08:36:40;9.17;;;8.27;;
55423;SDS011;41294;42.666;23.350;2023-05-14T08:39:06;11.23;;;7.80;;
55423;SDS011;41294;42.666;23.350;2023-05-14T08:41:34;7.97;;;7.17;;
55423;SDS011;41294;42.666;23.350;2023-05-14T08:46:36;8.67;;;7.77;;
55423;SDS011;41294;42.666;23.350;2023-05-14T08:52:02;13.57;;;11.03;;
55423;SDS011;41294;42.666;23.350;2023-05-14T08:54:28;12.33;;;9.50;;
55423;SDS011;41294;42.666;23.350;2023-05-14T08:56:56;8.33;;;7.60;;
55423;SDS011;41294;42.666;23.350;2023-05-14T08:59:22;10.77;;;9.00;;
55423;SDS011;41294;42.666;23.350;2023-05-14T09:01:51;11.37;;;9.17;;
55423;SDS011;41294;42.666;23.350;2023-05-14T09:04:21;9.47;;;8.13;;
55423;SDS011;41294;42.666;23.350;2023-05-14T09:06:49;8.93;;;7.80;;
55423;SDS011;41294;42.666;23.350;2023-05-14T09:09:18;9.37;;;7.77;;
55423;SDS011;41294;42.666;23.350;2023-05-14T09:11:46;8.47;;;7.63;;
55423;SDS011;41294;42.666;23.350;2023-05-14T09:14:13;10.70;;;8.30;;
55423;SDS011;41294;42.666;23.350;2023-05-14T09:16:38;9.40;;;8.47;;
55423;SDS011;41294;42.666;23.350;2023-05-14T09:19:06;9.53;;;7.97;;
55423;SDS011;41294;42.666;23.350;2023-05-14T09:21:32;9.10;;;7.57;;
55423;SDS011;41294;42.666;23.350;2023-05-14T09:23:58;8.97;;;8.10;;
55423;SDS011;41294;42.666;23.350;2023-05-14T09:26:24;9.03;;;7.97;;
55423;SDS011;41294;42.666;23.350;2023-05-14T09:28:54;9.13;;;8.07;;
55423;SDS011;41294;42.666;23.350;2023-05-14T09:31:21;7.53;;;6.83;;
55423;SDS011;41294;42.666;23.350;2023-05-14T09:33:50;8.47;;;7.57;;
55423;SDS011;41294;42.666;23.350;2023-05-14T09:36:17;8.87;;;8.03;;
55423;SDS011;41294;42.666;23.350;2023-05-14T09:38:43;10.27;;;9.03;;
55423;SDS011;41294;42.666;23.350;2023-05-14T09:41:09;11.17;;;9.17;;
55423;SDS011;41294;42.666;23.350;2023-05-14T09:43:34;10.97;;;9.87;;
55423;SDS011;41294;42.666;23.350;2023-05-14T09:46:00;11.43;;;8.87;;
55423;SDS011;41294;42.666;23.350;2023-05-14T09:48:25;12.83;;;8.73;;
55423;SDS011;41294;42.666;23.350;2023-05-14T09:50:51;11.23;;;8.43;;
55423;SDS011;41294;42.666;23.350;2023-05-14T09:53:17;10.03;;;9.03;;
55423;SDS011;41294;42.666;23.350;2023-05-14T09:55:43;9.53;;;8.50;;
55423;SDS011;41294;42.666;23.350;2023-05-14T09:58:09;10.80;;;7.77;;
55423;SDS011;41294;42.666;23.350;2023-05-14T10:00:37;11.33;;;8.53;;
55423;SDS011;41294;42.666;23.350;2023-05-14T10:03:03;7.97;;;7.13;;
55423;SDS011;41294;42.666;23.350;2023-05-14T10:05:36;7.93;;;7.23;;
55423;SDS011;41294;42.666;23.350;2023-05-14T10:10:42;9.63;;;8.67;;
55423;SDS011;41294;42.666;23.350;2023-05-14T10:13:14;8.80;;;8.00;;
55423;SDS011;41294;42.666;23.350;2023-05-14T10:15:48;10.13;;;7.83;;
55423;SDS011;41294;42.666;23.350;2023-05-14T10:18:20;8.90;;;8.00;;
55423;SDS011;41294;42.666;23.350;2023-05-14T10:20:47;8.37;;;7.57;;
55423;SDS011;41294;42.666;23.350;2023-05-14T10:23:24;9.93;;;8.60;;
55423;SDS011;41294;42.666;23.350;2023-05-14T10:25:50;10.80;;;8.80;;
55423;SDS011;41294;42.666;23.350;2023-05-14T10:28:15;10.37;;;9.37;;
55423;SDS011;41294;42.666;23.350;2023-05-14T10:30:44;9.70;;;8.80;;
55423;SDS011;41294;42.666;23.350;2023-05-14T10:33:14;9.37;;;8.23;;
55423;SDS011;41294;42.666;23.350;2023-05-14T10:38:22;9.93;;;8.93;;
55423;SDS011;41294;42.666;23.350;2023-05-14T10:40:53;11.87;;;10.67;;
55423;SDS011;41294;42.666;23.350;2023-05-14T10:43:28;10.77;;;9.67;;
55423;SDS011;41294;42.666;23.350;2023-05-14T10:45:58;10.17;;;9.17;;
55423;SDS011;41294;42.666;23.350;2023-05-14T10:48:25;13.43;;;10.03;;
55423;SDS011;41294;42.666;23.350;2023-05-14T10:50:51;12.70;;;11.27;;
55423;SDS011;41294;42.666;23.350;2023-05-14T10:53:17;11.73;;;9.93;;
55423;SDS011;41294;42.666;23.350;2023-05-14T10:55:43;12.70;;;9.33;;
55423;SDS011;41294;42.666;23.350;2023-05-14T10:58:09;11.63;;;9.60;;
55423;SDS011;41294;42.666;23.350;2023-05-14T11:00:36;11.40;;;9.90;;
55423;SDS011;41294;42.666;23.350;2023-05-14T11:03:05;13.50;;;10.47;;
55423;SDS011;41294;42.666;23.350;2023-05-14T11:05:31;13.60;;;11.50;;
55423;SDS011;41294;42.666;23.350;2023-05-14T11:07:57;11.20;;;9.70;;
55423;SDS011;41294;42.666;23.350;2023-05-14T11:10:23;11.07;;;9.90;;
55423;SDS011;41294;42.666;23.350;2023-05-14T11:12:50;10.73;;;9.83;;
55423;SDS011;41294;42.666;23.350;2023-05-14T11:15:17;10.83;;;9.73;;
55423;SDS011;41294;42.666;23.350;2023-05-14T11:17:45;10.37;;;9.37;;
55423;SDS011;41294;42.666;23.350;2023-05-14T11:20:12;10.30;;;9.40;;
55423;SDS011;41294;42.666;23.350;2023-05-14T11:22:38;12.07;;;11.07;;
55423;SDS011;41294;42.666;23.350;2023-05-14T11:25:05;11.20;;;10.20;;
55423;SDS011;41294;42.666;23.350;2023-05-14T11:27:35;11.17;;;10.17;;
55423;SDS011;41294;42.666;23.350;2023-05-14T11:30:02;12.17;;;10.97;;
55423;SDS011;41294;42.666;23.350;2023-05-14T11:32:30;11.23;;;10.03;;
55423;SDS011;41294;42.666;23.350;2023-05-14T11:34:56;12.70;;;11.53;;
55423;SDS011;41294;42.666;23.350;2023-05-14T11:37:22;12.70;;;11.40;;
55423;SDS011;41294;42.666;23.350;2023-05-14T11:39:51;13.43;;;12.10;;
55423;SDS011;41294;42.666;23.350;2023-05-14T11:42:18;13.00;;;11.70;;
55423;SDS011;41294;42.666;23.350;2023-05-14T11:44:47;13.53;;;12.17;;
55423;SDS011;41294;42.666;23.350;2023-05-14T11:47:17;12.37;;;11.17;;
55423;SDS011;41294;42.666;23.350;2023-05-14T11:49:43;11.83;;;10.77;;
55423;SDS011;41294;42.666;23.350;2023-05-14T11:52:09;12.17;;;11.00;;
55423;SDS011;41294;42.666;23.350;2023-05-14T11:54:38;11.63;;;10.43;;
55423;SDS011;41294;42.666;23.350;2023-05-14T11:57:07;12.40;;;10.60;;
55423;SDS011;41294;42.666;23.350;2023-05-14T11:59:35;11.63;;;10.20;;
55423;SDS011;41294;42.666;23.350;2023-05-14T12:02:01;11.17;;;10.07;;
55423;SDS011;41294;42.666;23.350;2023-05-14T12:04:27;9.67;;;8.47;;
55423;SDS011;41294;42.666;23.350;2023-05-14T12:06:53;10.43;;;9.33;;
55423;SDS011;41294;42.666;23.350;2023-05-14T12:09:21;10.10;;;9.07;;
55423;SDS011;41294;42.666;23.350;2023-05-14T12:11:47;9.10;;;8.30;;
55423;SDS011;41294;42.666;23.350;2023-05-14T12:16:48;9.77;;;8.87;;
55423;SDS011;41294;42.666;23.350;2023-05-14T12:19:15;9.43;;;8.50;;
55423;SDS011;41294;42.666;23.350;2023-05-14T12:21:42;8.37;;;7.57;;
55423;SDS011;41294;42.666;23.350;2023-05-14T12:24:10;8.43;;;7.73;;
55423;SDS011;41294;42.666;23.350;2023-05-14T12:26:37;9.33;;;8.33;;
55423;SDS011;41294;42.666;23.350;2023-05-14T12:29:05;8.47;;;7.77;;
55423;SDS011;41294;42.666;23.350;2023-05-14T12:31:32;8.00;;;7.30;;
55423;SDS011;41294;42.666;23.350;2023-05-14T12:33:58;10.00;;;9.10;;
55423;SDS011;41294;42.666;23.350;2023-05-14T12:36:24;8.50;;;7.70;;
55423;SDS011;41294;42.666;23.350;2023-05-14T12:38:50;10.03;;;8.83;;
55423;SDS011;41294;42.666;23.350;2023-05-14T12:41:22;9.87;;;8.97;;
55423;SDS011;41294;42.666;23.350;2023-05-14T12:43:47;9.10;;;8.27;;
55423;SDS011;41294;42.666;23.350;2023-05-14T12:46:13;9.17;;;8.37;;
55423;SDS011;41294;42.666;23.350;2023-05-14T12:48:39;8.13;;;7.43;;
55423;SDS011;41294;42.666;23.350;2023-05-14T12:51:04;9.37;;;8.47;;
55423;SDS011;41294;42.666;23.350;2023-05-14T12:53:30;8.40;;;7.70;;
55423;SDS011;41294;42.666;23.350;2023-05-14T12:55:56;8.77;;;7.87;;
55423;SDS011;41294;42.666;23.350;2023-05-14T12:58:21;10.23;;;9.33;;
55423;SDS011;41294;42.666;23.350;2023-05-14T13:00:46;9.83;;;9.03;;
55423;SDS011;41294;42.666;23.350;2023-05-14T13:03:12;9.53;;;8.70;;
55423;SDS011;41294;42.666;23.350;2023-05-14T13:05:37;9.73;;;8.83;;
55423;SDS011;41294;42.666;23.350;2023-05-14T13:08:02;9.97;;;9.17;;
55423;SDS011;41294;42.666;23.350;2023-05-14T13:10:28;8.90;;;8.20;;
55423;SDS011;41294;42.666;23.350;2023-05-14T13:12:53;9.10;;;8.30;;
55423;SDS011;41294;42.666;23.350;2023-05-14T13:15:20;9.27;;;8.47;;
55423;SDS011;41294;42.666;23.350;2023-05-14T13:17:46;9.13;;;8.07;;
55423;SDS011;41294;42.666;23.350;2023-05-14T13:20:12;9.93;;;9.03;;
55423;SDS011;41294;42.666;23.350;2023-05-14T13:22:37;9.57;;;8.77;;
55423;SDS011;41294;42.666;23.350;2023-05-14T13:25:02;9.33;;;8.63;;
55423;SDS011;41294;42.666;23.350;2023-05-14T13:27:28;9.83;;;8.97;;
55423;SDS011;41294;42.666;23.350;2023-05-14T13:29:54;10.47;;;9.50;;
55423;SDS011;41294;42.666;23.350;2023-05-14T13:32:20;11.13;;;10.10;;
55423;SDS011;41294;42.666;23.350;2023-05-14T13:34:46;11.07;;;9.70;;
55423;SDS011;41294;42.666;23.350;2023-05-14T13:37:11;11.17;;;10.17;;
55423;SDS011;41294;42.666;23.350;2023-05-14T13:39:36;9.70;;;8.80;;
55423;SDS011;41294;42.666;23.350;2023-05-14T13:42:02;11.07;;;9.97;;
55423;SDS011;41294;42.666;23.350;2023-05-14T13:44:27;11.23;;;10.13;;
55423;SDS011;41294;42.666;23.350;2023-05-14T13:46:53;11.53;;;10.40;;
55423;SDS011;41294;42.666;23.350;2023-05-14T13:49:18;10.67;;;9.73;;
55423;SDS011;41294;42.666;23.350;2023-05-14T13:51:44;10.80;;;9.73;;
55423;SDS011;41294;42.666;23.350;2023-05-14T13:54:09;10.33;;;9.53;;
55423;SDS011;41294;42.666;23.350;2023-05-14T13:56:35;11.83;;;10.73;;
55423;SDS011;41294;42.666;23.350;2023-05-14T13:59:00;11.60;;;10.50;;
55423;SDS011;41294;42.666;23.350;2023-05-14T14:01:26;11.30;;;10.27;;
55423;SDS011;41294;42.666;23.350;2023-05-14T14:03:51;12.80;;;11.50;;
55423;SDS011;41294;42.666;23.350;2023-05-14T14:06:17;13.43;;;12.23;;
55423;SDS011;41294;42.666;23.350;2023-05-14T14:08:42;13.80;;;12.43;;
55423;SDS011;41294;42.666;23.350;2023-05-14T14:11:07;12.13;;;10.93;;
55423;SDS011;41294;42.666;23.350;2023-05-14T14:13:33;11.70;;;10.60;;
55423;SDS011;41294;42.666;23.350;2023-05-14T14:15:58;12.77;;;11.57;;
55423;SDS011;41294;42.666;23.350;2023-05-14T14:18:23;13.90;;;12.60;;
55423;SDS011;41294;42.666;23.350;2023-05-14T14:20:49;13.40;;;12.03;;
55423;SDS011;41294;42.666;23.350;2023-05-14T14:23:14;13.87;;;12.47;;
55423;SDS011;41294;42.666;23.350;2023-05-14T14:25:40;13.47;;;12.07;;
55423;SDS011;41294;42.666;23.350;2023-05-14T14:28:05;13.23;;;12.03;;
55423;SDS011;41294;42.666;23.350;2023-05-14T14:30:31;15.37;;;13.93;;
55423;SDS011;41294;42.666;23.350;2023-05-14T14:32:56;13.60;;;12.20;;
55423;SDS011;41294;42.666;23.350;2023-05-14T14:35:25;13.60;;;12.40;;
55423;SDS011;41294;42.666;23.350;2023-05-14T14:37:50;12.83;;;11.70;;
55423;SDS011;41294;42.666;23.350;2023-05-14T14:40:17;13.40;;;12.10;;
55423;SDS011;41294;42.666;23.350;2023-05-14T14:42:43;13.97;;;12.53;;